Faust — V2NA4 — position and weather

sailwx.info

Track history (hours):
 
Tides and Currents Weather Stations Pressure Air Temp Water Temp Dewpoint Dewpoint Depression Visibility Wind Speed Wind Dir Waves Ship Positions

Faust

Last reported at 2018-Apr-20 00:09 UTC. Time now 2018-Apr-20 02:48 UTC.
Position N 43°05' E 007°02'.

Length 99 m; draft 4 m.

Type: Ship. MMSI: 304302000.

Date/timePositionNaut miles runAvg speedWind from/ knotsBaromVisibWave heightAir tempDewpointWater temp
2018-Apr-20 00:09N 43°05' E 007°02'211.8
2018-Apr-20 00:00N 43°06' E 007°04'612.0
2018-Apr-19 23:30N 43°07' E 007°12'711.7
2018-Apr-19 22:55N 43°08' E 007°22'511.7
2018-Apr-19 22:30N 43°08' E 007°28'7711.6
2018-Apr-19 15:49N 43°09' E 009°14'411.5
2018-Apr-19 15:28N 43°09' E 009°20'511.5
2018-Apr-19 15:00N 43°09' E 009°27'611.6
2018-Apr-19 14:30N 43°10' E 009°35'611.4
2018-Apr-19 14:00N 43°10' E 009°43'611.5
2018-Apr-19 13:30N 43°10' E 009°51'611.4
2018-Apr-19 13:00N 43°07' E 009°58'611.6
2018-Apr-19 12:30N 43°04' E 010°05'611.8
2018-Apr-19 11:59N 43°01' E 010°12'6 0.2
2018-Apr-18 03:00N 42°58' E 010°19'510.5
2018-Apr-18 02:30N 43°01' E 010°12'510.4
2018-Apr-18 02:00N 43°03' E 010°06'510.4
2018-Apr-18 01:30N 43°06' E 010°00'510.2
2018-Apr-18 01:00N 43°08' E 009°54'5 9.4
2018-Apr-18 00:30N 43°10' E 009°48'5 9.8
2018-Apr-18 00:00N 43°10' E 009°41'5 9.9
2018-Apr-17 23:30N 43°09' E 009°35'510.0
2018-Apr-17 23:00N 43°09' E 009°28'5 9.8
2018-Apr-17 22:30N 43°09' E 009°21'5 9.9
2018-Apr-17 22:00N 43°09' E 009°14'5 9.9
2018-Apr-17 21:30N 43°09' E 009°08'5 9.9
2018-Apr-17 20:59N 43°09' E 009°00'510.0
2018-Apr-17 20:30N 43°09' E 008°54'1210.5
2018-Apr-17 19:24N 43°09' E 008°38'510.7
2018-Apr-17 18:57N 43°08' E 008°32'510.1
2018-Apr-17 18:30N 43°09' E 008°25'510.3
2018-Apr-17 18:00N 43°09' E 008°18'510.7
2018-Apr-17 17:30N 43°09' E 008°11'510.8
2018-Apr-17 17:00N 43°08' E 008°03'511.0
2018-Apr-17 16:30N 43°08' E 007°56'1610.6
2018-Apr-17 15:00N 43°08' E 007°34'910.6
2018-Apr-17 14:11N 43°08' E 007°22'510.5
2018-Apr-17 13:41N 43°08' E 007°15'210.5
2018-Apr-17 13:30N 43°08' E 007°13'510.3
2018-Apr-17 13:00N 43°08' E 007°06'11 9.4
2018-Apr-17 11:49N 43°08' E 006°50'77 9.4
2018-Apr-17 03:39N 43°14' E 005°05'210.2
2018-Apr-17 03:30N 43°15' E 005°04'5 9.9
2018-Apr-17 03:00N 43°18' E 004°59'5 9.9
2018-Apr-17 02:29N 43°23' E 004°56'3 6.3
2018-Apr-17 01:58N 43°26' E 004°54'0 0.0
2018-Apr-17 01:28N 43°26' E 004°54'0 0.0
2018-Apr-17 00:59N 43°26' E 004°54'0 0.0
2018-Apr-17 00:25N 43°26' E 004°54'0 0.0
2018-Apr-16 23:59N 43°26' E 004°54'0 0.0
2018-Apr-16 23:29N 43°26' E 004°54'0 0.0
2018-Apr-16 22:59N 43°26' E 004°54'0 0.0
2018-Apr-16 22:28N 43°26' E 004°54'0 0.0
2018-Apr-16 21:59N 43°26' E 004°54'0 0.0
2018-Apr-16 21:29N 43°26' E 004°54'0 0.0
2018-Apr-16 20:59N 43°26' E 004°54'0 0.0
2018-Apr-16 20:29N 43°26' E 004°54'0 0.0
2018-Apr-16 19:56N 43°26' E 004°54'0 0.0
2018-Apr-16 19:28N 43°26' E 004°54'0 0.0
2018-Apr-16 18:58N 43°26' E 004°54'0 0.0
2018-Apr-16 18:29N 43°26' E 004°54'0 0.0
2018-Apr-16 17:58N 43°26' E 004°54'0 0.0
2018-Apr-16 17:29N 43°26' E 004°54'0 0.0
2018-Apr-16 16:59N 43°26' E 004°54'0 0.0
2018-Apr-16 16:29N 43°26' E 004°54'0 0.0
2018-Apr-16 15:59N 43°26' E 004°54'0 0.0
2018-Apr-16 15:29N 43°26' E 004°54'0 0.0
2018-Apr-16 14:56N 43°26' E 004°54'0 0.0
2018-Apr-16 14:29N 43°26' E 004°54'0 0.0
2018-Apr-16 13:58N 43°26' E 004°54'0 0.0
2018-Apr-16 13:29N 43°26' E 004°54'0 0.0
2018-Apr-16 12:52N 43°26' E 004°54'0 0.0
2018-Apr-16 12:28N 43°26' E 004°54'0 0.0
2018-Apr-16 11:59N 43°26' E 004°54'0 0.0
2018-Apr-16 11:28N 43°26' E 004°54'0 0.0
2018-Apr-16 10:59N 43°26' E 004°54'0 0.0
2018-Apr-16 10:28N 43°26' E 004°54'0 0.0
2018-Apr-16 09:58N 43°26' E 004°54'0 0.0
2018-Apr-16 09:28N 43°26' E 004°54'0 0.0
2018-Apr-16 08:58N 43°26' E 004°54'0 0.0
2018-Apr-16 08:29N 43°26' E 004°54'0 0.0
2018-Apr-16 07:59N 43°26' E 004°54'0 0.0
2018-Apr-16 07:26N 43°26' E 004°54'0 0.0
2018-Apr-16 06:59N 43°26' E 004°54'0 0.0
2018-Apr-16 06:28N 43°26' E 004°54'0 0.0
2018-Apr-16 05:59N 43°26' E 004°54'0 0.0
2018-Apr-16 05:29N 43°26' E 004°54'0 0.0
2018-Apr-16 04:58N 43°26' E 004°54'0 0.0
2018-Apr-16 04:29N 43°26' E 004°54'0 0.0
2018-Apr-16 03:59N 43°26' E 004°54'0 0.0
2018-Apr-16 03:29N 43°26' E 004°54'0 0.0
2018-Apr-16 02:59N 43°26' E 004°54'0 0.0
2018-Apr-16 02:28N 43°26' E 004°54'0 0.0
2018-Apr-16 01:58N 43°26' E 004°54'0 0.0
2018-Apr-16 01:28N 43°26' E 004°54'0 0.0
2018-Apr-16 00:59N 43°26' E 004°54'0 0.0
2018-Apr-16 00:29N 43°26' E 004°54'0 0.0
2018-Apr-15 23:59N 43°26' E 004°54'0 0.0
2018-Apr-15 23:30N 43°26' E 004°54'0 0.0
2018-Apr-15 23:00N 43°26' E 004°54'0 0.0
2018-Apr-15 22:30N 43°26' E 004°54'0 0.0
2018-Apr-15 22:00N 43°26' E 004°54'0 0.0
2018-Apr-15 21:30N 43°26' E 004°54'0 0.0
2018-Apr-15 21:00N 43°26' E 004°54'0 0.0
2018-Apr-15 20:30N 43°26' E 004°54'0 0.0
2018-Apr-15 19:58N 43°26' E 004°54'0 0.3
2018-Apr-15 19:30N 43°26' E 004°54'3 6.6
2018-Apr-15 19:00N 43°23' E 004°56'5 9.6
2018-Apr-15 18:30N 43°19' E 004°60'811.0
2018-Apr-15 17:47N 43°11' E 005°01'811.9
2018-Apr-15 17:07N 43°05' E 004°54'111.9
2018-Apr-15 17:00N 43°04' E 004°53'16810.5
2018-Apr-15 01:04N 41°11' E 002°05'110.3
2018-Apr-15 00:57N 41°11' E 002°03'510.3
2018-Apr-15 00:30N 41°09' E 001°58'510.7
2018-Apr-15 00:00N 41°06' E 001°52'510.7
2018-Apr-14 23:30N 41°04' E 001°45'124 6.7
2018-Apr-14 05:02N 39°38' W 000°13'0 5.4
2018-Apr-14 05:00N 39°38' W 000°13'124 9.3
2018-Apr-13 15:36N 41°01' E 001°49'210.6
2018-Apr-13 15:23N 41°02' E 001°51'410.7
2018-Apr-13 15:00N 41°05' E 001°55'510.5
2018-Apr-13 14:29N 41°09' E 002°00'510.5
2018-Apr-13 14:00N 41°12' E 002°06'510.6
2018-Apr-13 13:30N 41°15' E 002°11'510.4
2018-Apr-13 13:00N 41°18' E 002°17'510.5
2018-Apr-13 12:30N 41°21' E 002°23'15010.1
2018-Apr-12 21:39N 43°09' E 004°44'110.2
2018-Apr-12 21:30N 43°10' E 004°46'510.3
2018-Apr-12 20:58N 43°13' E 004°51'810.2
2018-Apr-12 20:13N 43°19' E 004°58'210.1
2018-Apr-12 20:00N 43°21' E 004°58'4 8.7
2018-Apr-12 19:30N 43°24' E 004°54'2 2.9
2018-Apr-12 18:59N 43°26' E 004°53'0 0.0
2018-Apr-12 18:29N 43°26' E 004°53'0 0.0
2018-Apr-12 17:59N 43°26' E 004°53'0 0.0
2018-Apr-12 17:29N 43°26' E 004°53'0 0.0
2018-Apr-12 16:59N 43°26' E 004°53'0 0.0
2018-Apr-12 16:23N 43°26' E 004°53'0 0.0
2018-Apr-12 15:59N 43°26' E 004°53'0 0.0
2018-Apr-12 15:23N 43°26' E 004°53'0 0.0
2018-Apr-12 14:59N 43°26' E 004°53'0 0.0
2018-Apr-12 14:29N 43°26' E 004°53'0 0.0
2018-Apr-12 13:59N 43°26' E 004°53'0 0.0
2018-Apr-12 13:29N 43°26' E 004°53'0 0.0
2018-Apr-12 12:53N 43°26' E 004°53'0 0.0
2018-Apr-12 12:29N 43°26' E 004°53'0 0.0
2018-Apr-12 11:59N 43°26' E 004°53'0 0.0
2018-Apr-12 11:29N 43°26' E 004°53'0 0.0
2018-Apr-12 10:59N 43°26' E 004°53'0 0.0
2018-Apr-12 10:29N 43°26' E 004°53'0 0.0
2018-Apr-12 09:47N 43°26' E 004°53'0 0.0
2018-Apr-12 09:29N 43°26' E 004°53'0 0.0
2018-Apr-12 08:59N 43°26' E 004°53'0 0.0
2018-Apr-12 08:29N 43°26' E 004°53'0 0.0
2018-Apr-12 07:59N 43°26' E 004°53'0 0.0
2018-Apr-12 07:29N 43°26' E 004°53'0 0.0
2018-Apr-12 06:59N 43°26' E 004°53'0 0.0
2018-Apr-12 06:29N 43°26' E 004°53'0 0.0
2018-Apr-12 05:59N 43°26' E 004°53'0 0.0
2018-Apr-12 05:29N 43°26' E 004°53'0 0.0
2018-Apr-12 04:59N 43°26' E 004°53'0 0.0
2018-Apr-12 04:29N 43°26' E 004°53'0 0.0
2018-Apr-12 03:59N 43°26' E 004°53'0 0.0
2018-Apr-12 03:29N 43°26' E 004°53'0 0.0
2018-Apr-12 02:59N 43°26' E 004°53'0 0.0
2018-Apr-12 02:29N 43°26' E 004°53'0 0.0
2018-Apr-12 01:59N 43°26' E 004°53'0 0.0
2018-Apr-12 01:29N 43°26' E 004°53'0 0.0
2018-Apr-12 00:59N 43°26' E 004°53'0 0.0
2018-Apr-12 00:29N 43°26' E 004°53'0 0.0
2018-Apr-11 23:59N 43°26' E 004°53'0 0.0
2018-Apr-11 23:29N 43°26' E 004°53'0 0.0
2018-Apr-11 22:59N 43°26' E 004°53'0 0.0
2018-Apr-11 22:29N 43°26' E 004°53'0 0.0
2018-Apr-11 21:59N 43°26' E 004°53'0 0.0
2018-Apr-11 21:29N 43°26' E 004°53'0 0.0
2018-Apr-11 20:59N 43°26' E 004°53'0 0.0
2018-Apr-11 20:29N 43°26' E 004°53'0 0.0
2018-Apr-11 19:59N 43°26' E 004°53'0 0.0
2018-Apr-11 19:29N 43°26' E 004°53'0 0.0
2018-Apr-11 18:59N 43°26' E 004°53'0 0.0
2018-Apr-11 18:29N 43°26' E 004°53'0 0.0
2018-Apr-11 17:59N 43°26' E 004°53'0 0.0
2018-Apr-11 17:29N 43°26' E 004°53'0 0.0
2018-Apr-11 16:59N 43°26' E 004°53'0 0.0
2018-Apr-11 16:29N 43°26' E 004°53'0 0.0
2018-Apr-11 16:00N 43°26' E 004°53'2 3.7
2018-Apr-11 15:30N 43°24' E 004°54'1 1.2
2018-Apr-11 14:59N 43°23' E 004°54'0 0.0
2018-Apr-11 14:23N 43°23' E 004°54'0 0.0
2018-Apr-11 13:59N 43°23' E 004°54'0 0.0
2018-Apr-11 13:23N 43°23' E 004°54'0 0.2
2018-Apr-11 12:59N 43°23' E 004°54'0 0.1
2018-Apr-11 12:26N 43°23' E 004°54'0 0.0
2018-Apr-11 11:44N 43°23' E 004°54'0 0.0
2018-Apr-11 10:56N 43°23' E 004°54'0 0.0
2018-Apr-11 10:26N 43°23' E 004°54'0 0.0
2018-Apr-11 09:32N 43°23' E 004°54'0 0.1
2018-Apr-11 09:29N 43°23' E 004°54'0 0.0
2018-Apr-11 08:59N 43°23' E 004°54'0 0.0
2018-Apr-11 08:29N 43°23' E 004°54'0 0.1
2018-Apr-11 07:59N 43°23' E 004°54'0 0.0
2018-Apr-11 07:26N 43°23' E 004°54'0 0.0
2018-Apr-11 06:56N 43°23' E 004°54'0 0.1
2018-Apr-11 06:05N 43°23' E 004°54'0 0.0
2018-Apr-11 05:56N 43°23' E 004°54'0 0.0
2018-Apr-11 05:29N 43°23' E 004°54'0 0.0
2018-Apr-11 04:38N 43°23' E 004°54'0 0.0
2018-Apr-11 04:23N 43°23' E 004°54'0 0.0
2018-Apr-11 03:59N 43°23' E 004°54'0 0.0
2018-Apr-11 03:26N 43°23' E 004°54'0 0.0
2018-Apr-11 02:59N 43°23' E 004°54'0 0.0
2018-Apr-11 02:29N 43°23' E 004°54'0 0.0
2018-Apr-11 01:17N 43°23' E 004°54'0 0.0
2018-Apr-11 00:59N 43°23' E 004°54'0 0.0
2018-Apr-11 00:14N 43°23' E 004°54'0 0.0
2018-Apr-10 23:29N 43°23' E 004°54'0 0.0
2018-Apr-10 22:56N 43°23' E 004°54'0 0.0
2018-Apr-10 22:29N 43°23' E 004°54'0 0.0
2018-Apr-10 21:59N 43°23' E 004°54'0 0.0
2018-Apr-10 21:29N 43°23' E 004°54'0 0.0
2018-Apr-10 20:59N 43°23' E 004°54'0 0.0
2018-Apr-10 20:26N 43°23' E 004°54'0 0.0
2018-Apr-10 19:59N 43°23' E 004°54'0 0.0
2018-Apr-10 19:29N 43°23' E 004°54'0 0.0
2018-Apr-10 17:47N 43°23' E 004°54'0 0.0
2018-Apr-10 17:23N 43°23' E 004°54'0 0.0
2018-Apr-10 16:59N 43°23' E 004°54'0 0.1
2018-Apr-10 16:29N 43°23' E 004°54'0 0.0
2018-Apr-10 15:59N 43°23' E 004°54'0 0.0
2018-Apr-10 15:29N 43°23' E 004°54'0 0.0
2018-Apr-10 14:59N 43°23' E 004°54'0 0.0
2018-Apr-10 14:29N 43°23' E 004°54'0 0.0
2018-Apr-10 13:59N 43°23' E 004°54'0 0.0
2018-Apr-10 13:29N 43°23' E 004°54'0 0.0
2018-Apr-10 12:56N 43°23' E 004°54'0 0.0
2018-Apr-10 12:29N 43°23' E 004°54'0 0.0
2018-Apr-10 11:59N 43°23' E 004°54'0 0.0
2018-Apr-10 11:29N 43°23' E 004°54'0 0.0
2018-Apr-10 10:59N 43°23' E 004°54'0 0.0
2018-Apr-10 10:29N 43°23' E 004°54'0 0.0
2018-Apr-10 09:59N 43°23' E 004°54'0 0.0
2018-Apr-10 09:29N 43°23' E 004°54'0 0.0
2018-Apr-10 08:59N 43°23' E 004°54'0 0.0
2018-Apr-10 08:29N 43°23' E 004°54'0 0.0
2018-Apr-10 07:59N 43°23' E 004°54'0 0.0
2018-Apr-10 07:26N 43°23' E 004°54'0 0.0
2018-Apr-10 06:59N 43°23' E 004°54'0 0.0
2018-Apr-10 06:26N 43°23' E 004°54'0 0.0
2018-Apr-10 05:59N 43°23' E 004°54'0 0.0
2018-Apr-10 05:29N 43°23' E 004°54'0 0.0
2018-Apr-10 04:59N 43°23' E 004°54'0 0.0
2018-Apr-10 04:29N 43°23' E 004°54'0 0.0
2018-Apr-10 03:59N 43°23' E 004°54'0 0.0
2018-Apr-10 03:29N 43°23' E 004°54'0 0.0
2018-Apr-10 02:59N 43°23' E 004°54'0 0.0
2018-Apr-10 02:29N 43°23' E 004°54'0 0.1
2018-Apr-10 01:59N 43°23' E 004°54'0 0.0
2018-Apr-10 01:29N 43°23' E 004°54'0 0.0
2018-Apr-10 00:59N 43°23' E 004°54'0 0.0
2018-Apr-10 00:29N 43°23' E 004°54'  
Track history (hours):
 
Tides and Currents Weather Stations Pressure Air Temp Water Temp Dewpoint Dewpoint Depression Visibility Wind Speed Wind Dir Waves Ship Positions

Faust

Last reported at 2018-Apr-20 00:09 UTC. Time now 2018-Apr-20 02:48 UTC.
Position N 43°05' E 007°02'.

Length 99 m; draft 4 m.

Type: Ship. MMSI: 304302000.

Date/timePositionNaut miles runAvg speedWind from/ knotsBaromVisibWave heightAir tempDewpointWater temp
2018-Apr-20 00:09N 43°05' E 007°02'211.8
2018-Apr-20 00:00N 43°06' E 007°04'612.0
2018-Apr-19 23:30N 43°07' E 007°12'711.7
2018-Apr-19 22:55N 43°08' E 007°22'511.7
2018-Apr-19 22:30N 43°08' E 007°28'7711.6
2018-Apr-19 15:49N 43°09' E 009°14'411.5
2018-Apr-19 15:28N 43°09' E 009°20'511.5
2018-Apr-19 15:00N 43°09' E 009°27'611.6
2018-Apr-19 14:30N 43°10' E 009°35'611.4
2018-Apr-19 14:00N 43°10' E 009°43'611.5
2018-Apr-19 13:30N 43°10' E 009°51'611.4
2018-Apr-19 13:00N 43°07' E 009°58'611.6
2018-Apr-19 12:30N 43°04' E 010°05'611.8
2018-Apr-19 11:59N 43°01' E 010°12'6 0.2
2018-Apr-18 03:00N 42°58' E 010°19'510.5
2018-Apr-18 02:30N 43°01' E 010°12'510.4
2018-Apr-18 02:00N 43°03' E 010°06'510.4
2018-Apr-18 01:30N 43°06' E 010°00'510.2
2018-Apr-18 01:00N 43°08' E 009°54'5 9.4
2018-Apr-18 00:30N 43°10' E 009°48'5 9.8
2018-Apr-18 00:00N 43°10' E 009°41'5 9.9
2018-Apr-17 23:30N 43°09' E 009°35'510.0
2018-Apr-17 23:00N 43°09' E 009°28'5 9.8
2018-Apr-17 22:30N 43°09' E 009°21'5 9.9
2018-Apr-17 22:00N 43°09' E 009°14'5 9.9
2018-Apr-17 21:30N 43°09' E 009°08'5 9.9
2018-Apr-17 20:59N 43°09' E 009°00'510.0
2018-Apr-17 20:30N 43°09' E 008°54'1210.5
2018-Apr-17 19:24N 43°09' E 008°38'510.7
2018-Apr-17 18:57N 43°08' E 008°32'510.1
2018-Apr-17 18:30N 43°09' E 008°25'510.3
2018-Apr-17 18:00N 43°09' E 008°18'510.7
2018-Apr-17 17:30N 43°09' E 008°11'510.8
2018-Apr-17 17:00N 43°08' E 008°03'511.0
2018-Apr-17 16:30N 43°08' E 007°56'1610.6
2018-Apr-17 15:00N 43°08' E 007°34'910.6
2018-Apr-17 14:11N 43°08' E 007°22'510.5
2018-Apr-17 13:41N 43°08' E 007°15'210.5
2018-Apr-17 13:30N 43°08' E 007°13'510.3
2018-Apr-17 13:00N 43°08' E 007°06'11 9.4
2018-Apr-17 11:49N 43°08' E 006°50'77 9.4
2018-Apr-17 03:39N 43°14' E 005°05'210.2
2018-Apr-17 03:30N 43°15' E 005°04'5 9.9
2018-Apr-17 03:00N 43°18' E 004°59'5 9.9
2018-Apr-17 02:29N 43°23' E 004°56'3 6.3
2018-Apr-17 01:58N 43°26' E 004°54'0 0.0
2018-Apr-17 01:28N 43°26' E 004°54'0 0.0
2018-Apr-17 00:59N 43°26' E 004°54'0 0.0
2018-Apr-17 00:25N 43°26' E 004°54'0 0.0
2018-Apr-16 23:59N 43°26' E 004°54'0 0.0
2018-Apr-16 23:29N 43°26' E 004°54'0 0.0
2018-Apr-16 22:59N 43°26' E 004°54'0 0.0
2018-Apr-16 22:28N 43°26' E 004°54'0 0.0
2018-Apr-16 21:59N 43°26' E 004°54'0 0.0
2018-Apr-16 21:29N 43°26' E 004°54'0 0.0
2018-Apr-16 20:59N 43°26' E 004°54'0 0.0
2018-Apr-16 20:29N 43°26' E 004°54'0 0.0
2018-Apr-16 19:56N 43°26' E 004°54'0 0.0
2018-Apr-16 19:28N 43°26' E 004°54'0 0.0
2018-Apr-16 18:58N 43°26' E 004°54'0 0.0
2018-Apr-16 18:29N 43°26' E 004°54'0 0.0
2018-Apr-16 17:58N 43°26' E 004°54'0 0.0
2018-Apr-16 17:29N 43°26' E 004°54'0 0.0
2018-Apr-16 16:59N 43°26' E 004°54'0 0.0
2018-Apr-16 16:29N 43°26' E 004°54'0 0.0
2018-Apr-16 15:59N 43°26' E 004°54'0 0.0
2018-Apr-16 15:29N 43°26' E 004°54'0 0.0
2018-Apr-16 14:56N 43°26' E 004°54'0 0.0
2018-Apr-16 14:29N 43°26' E 004°54'0 0.0
2018-Apr-16 13:58N 43°26' E 004°54'0 0.0
2018-Apr-16 13:29N 43°26' E 004°54'0 0.0
2018-Apr-16 12:52N 43°26' E 004°54'0 0.0
2018-Apr-16 12:28N 43°26' E 004°54'0 0.0
2018-Apr-16 11:59N 43°26' E 004°54'0 0.0
2018-Apr-16 11:28N 43°26' E 004°54'0 0.0
2018-Apr-16 10:59N 43°26' E 004°54'0 0.0
2018-Apr-16 10:28N 43°26' E 004°54'0 0.0
2018-Apr-16 09:58N 43°26' E 004°54'0 0.0
2018-Apr-16 09:28N 43°26' E 004°54'0 0.0
2018-Apr-16 08:58N 43°26' E 004°54'0 0.0
2018-Apr-16 08:29N 43°26' E 004°54'0 0.0
2018-Apr-16 07:59N 43°26' E 004°54'0 0.0
2018-Apr-16 07:26N 43°26' E 004°54'0 0.0
2018-Apr-16 06:59N 43°26' E 004°54'0 0.0
2018-Apr-16 06:28N 43°26' E 004°54'0 0.0
2018-Apr-16 05:59N 43°26' E 004°54'0 0.0
2018-Apr-16 05:29N 43°26' E 004°54'0 0.0
2018-Apr-16 04:58N 43°26' E 004°54'0 0.0
2018-Apr-16 04:29N 43°26' E 004°54'0 0.0
2018-Apr-16 03:59N 43°26' E 004°54'0 0.0
2018-Apr-16 03:29N 43°26' E 004°54'0 0.0
2018-Apr-16 02:59N 43°26' E 004°54'0 0.0
2018-Apr-16 02:28N 43°26' E 004°54'0 0.0
2018-Apr-16 01:58N 43°26' E 004°54'0 0.0
2018-Apr-16 01:28N 43°26' E 004°54'0 0.0
2018-Apr-16 00:59N 43°26' E 004°54'0 0.0
2018-Apr-16 00:29N 43°26' E 004°54'0 0.0
2018-Apr-15 23:59N 43°26' E 004°54'0 0.0
2018-Apr-15 23:30N 43°26' E 004°54'0 0.0
2018-Apr-15 23:00N 43°26' E 004°54'0 0.0
2018-Apr-15 22:30N 43°26' E 004°54'0 0.0
2018-Apr-15 22:00N 43°26' E 004°54'0 0.0
2018-Apr-15 21:30N 43°26' E 004°54'0 0.0
2018-Apr-15 21:00N 43°26' E 004°54'0 0.0
2018-Apr-15 20:30N 43°26' E 004°54'0 0.0
2018-Apr-15 19:58N 43°26' E 004°54'0 0.3
2018-Apr-15 19:30N 43°26' E 004°54'3 6.6
2018-Apr-15 19:00N 43°23' E 004°56'5 9.6
2018-Apr-15 18:30N 43°19' E 004°60'811.0
2018-Apr-15 17:47N 43°11' E 005°01'811.9
2018-Apr-15 17:07N 43°05' E 004°54'111.9
2018-Apr-15 17:00N 43°04' E 004°53'16810.5
2018-Apr-15 01:04N 41°11' E 002°05'110.3
2018-Apr-15 00:57N 41°11' E 002°03'510.3
2018-Apr-15 00:30N 41°09' E 001°58'510.7
2018-Apr-15 00:00N 41°06' E 001°52'510.7
2018-Apr-14 23:30N 41°04' E 001°45'124 6.7
2018-Apr-14 05:02N 39°38' W 000°13'0 5.4
2018-Apr-14 05:00N 39°38' W 000°13'124 9.3
2018-Apr-13 15:36N 41°01' E 001°49'210.6
2018-Apr-13 15:23N 41°02' E 001°51'410.7
2018-Apr-13 15:00N 41°05' E 001°55'510.5
2018-Apr-13 14:29N 41°09' E 002°00'510.5
2018-Apr-13 14:00N 41°12' E 002°06'510.6
2018-Apr-13 13:30N 41°15' E 002°11'510.4
2018-Apr-13 13:00N 41°18' E 002°17'510.5
2018-Apr-13 12:30N 41°21' E 002°23'15010.1
2018-Apr-12 21:39N 43°09' E 004°44'110.2
2018-Apr-12 21:30N 43°10' E 004°46'510.3
2018-Apr-12 20:58N 43°13' E 004°51'810.2
2018-Apr-12 20:13N 43°19' E 004°58'210.1
2018-Apr-12 20:00N 43°21' E 004°58'4 8.7
2018-Apr-12 19:30N 43°24' E 004°54'2 2.9
2018-Apr-12 18:59N 43°26' E 004°53'0 0.0
2018-Apr-12 18:29N 43°26' E 004°53'0 0.0
2018-Apr-12 17:59N 43°26' E 004°53'0 0.0
2018-Apr-12 17:29N 43°26' E 004°53'0 0.0
2018-Apr-12 16:59N 43°26' E 004°53'0 0.0
2018-Apr-12 16:23N 43°26' E 004°53'0 0.0
2018-Apr-12 15:59N 43°26' E 004°53'0 0.0
2018-Apr-12 15:23N 43°26' E 004°53'0 0.0
2018-Apr-12 14:59N 43°26' E 004°53'0 0.0
2018-Apr-12 14:29N 43°26' E 004°53'0 0.0
2018-Apr-12 13:59N 43°26' E 004°53'0 0.0
2018-Apr-12 13:29N 43°26' E 004°53'0 0.0
2018-Apr-12 12:53N 43°26' E 004°53'0 0.0
2018-Apr-12 12:29N 43°26' E 004°53'0 0.0
2018-Apr-12 11:59N 43°26' E 004°53'0 0.0
2018-Apr-12 11:29N 43°26' E 004°53'0 0.0
2018-Apr-12 10:59N 43°26' E 004°53'0 0.0
2018-Apr-12 10:29N 43°26' E 004°53'0 0.0
2018-Apr-12 09:47N 43°26' E 004°53'0 0.0
2018-Apr-12 09:29N 43°26' E 004°53'0 0.0
2018-Apr-12 08:59N 43°26' E 004°53'0 0.0
2018-Apr-12 08:29N 43°26' E 004°53'0 0.0
2018-Apr-12 07:59N 43°26' E 004°53'0 0.0
2018-Apr-12 07:29N 43°26' E 004°53'0 0.0
2018-Apr-12 06:59N 43°26' E 004°53'0 0.0
2018-Apr-12 06:29N 43°26' E 004°53'0 0.0
2018-Apr-12 05:59N 43°26' E 004°53'0 0.0
2018-Apr-12 05:29N 43°26' E 004°53'0 0.0
2018-Apr-12 04:59N 43°26' E 004°53'0 0.0
2018-Apr-12 04:29N 43°26' E 004°53'0 0.0
2018-Apr-12 03:59N 43°26' E 004°53'0 0.0
2018-Apr-12 03:29N 43°26' E 004°53'0 0.0
2018-Apr-12 02:59N 43°26' E 004°53'0 0.0
2018-Apr-12 02:29N 43°26' E 004°53'0 0.0
2018-Apr-12 01:59N 43°26' E 004°53'0 0.0
2018-Apr-12 01:29N 43°26' E 004°53'0 0.0
2018-Apr-12 00:59N 43°26' E 004°53'0 0.0
2018-Apr-12 00:29N 43°26' E 004°53'0 0.0
2018-Apr-11 23:59N 43°26' E 004°53'0 0.0
2018-Apr-11 23:29N 43°26' E 004°53'0 0.0
2018-Apr-11 22:59N 43°26' E 004°53'0 0.0
2018-Apr-11 22:29N 43°26' E 004°53'0 0.0
2018-Apr-11 21:59N 43°26' E 004°53'0 0.0
2018-Apr-11 21:29N 43°26' E 004°53'0 0.0
2018-Apr-11 20:59N 43°26' E 004°53'0 0.0
2018-Apr-11 20:29N 43°26' E 004°53'0 0.0
2018-Apr-11 19:59N 43°26' E 004°53'0 0.0
2018-Apr-11 19:29N 43°26' E 004°53'0 0.0
2018-Apr-11 18:59N 43°26' E 004°53'0 0.0
2018-Apr-11 18:29N 43°26' E 004°53'0 0.0
2018-Apr-11 17:59N 43°26' E 004°53'0 0.0
2018-Apr-11 17:29N 43°26' E 004°53'0 0.0
2018-Apr-11 16:59N 43°26' E 004°53'0 0.0
2018-Apr-11 16:29N 43°26' E 004°53'0 0.0
2018-Apr-11 16:00N 43°26' E 004°53'2 3.7
2018-Apr-11 15:30N 43°24' E 004°54'1 1.2
2018-Apr-11 14:59N 43°23' E 004°54'0 0.0
2018-Apr-11 14:23N 43°23' E 004°54'0 0.0
2018-Apr-11 13:59N 43°23' E 004°54'0 0.0
2018-Apr-11 13:23N 43°23' E 004°54'0 0.2
2018-Apr-11 12:59N 43°23' E 004°54'0 0.1
2018-Apr-11 12:26N 43°23' E 004°54'0 0.0
2018-Apr-11 11:44N 43°23' E 004°54'0 0.0
2018-Apr-11 10:56N 43°23' E 004°54'0 0.0
2018-Apr-11 10:26N 43°23' E 004°54'0 0.0
2018-Apr-11 09:32N 43°23' E 004°54'0 0.1
2018-Apr-11 09:29N 43°23' E 004°54'0 0.0
2018-Apr-11 08:59N 43°23' E 004°54'0 0.0
2018-Apr-11 08:29N 43°23' E 004°54'0 0.1
2018-Apr-11 07:59N 43°23' E 004°54'0 0.0
2018-Apr-11 07:26N 43°23' E 004°54'0 0.0
2018-Apr-11 06:56N 43°23' E 004°54'0 0.1
2018-Apr-11 06:05N 43°23' E 004°54'0 0.0
2018-Apr-11 05:56N 43°23' E 004°54'0 0.0
2018-Apr-11 05:29N 43°23' E 004°54'0 0.0
2018-Apr-11 04:38N 43°23' E 004°54'0 0.0
2018-Apr-11 04:23N 43°23' E 004°54'0 0.0
2018-Apr-11 03:59N 43°23' E 004°54'0 0.0
2018-Apr-11 03:26N 43°23' E 004°54'0 0.0
2018-Apr-11 02:59N 43°23' E 004°54'0 0.0
2018-Apr-11 02:29N 43°23' E 004°54'0 0.0
2018-Apr-11 01:17N 43°23' E 004°54'0 0.0
2018-Apr-11 00:59N 43°23' E 004°54'0 0.0
2018-Apr-11 00:14N 43°23' E 004°54'0 0.0
2018-Apr-10 23:29N 43°23' E 004°54'0 0.0
2018-Apr-10 22:56N 43°23' E 004°54'0 0.0
2018-Apr-10 22:29N 43°23' E 004°54'0 0.0
2018-Apr-10 21:59N 43°23' E 004°54'0 0.0
2018-Apr-10 21:29N 43°23' E 004°54'0 0.0
2018-Apr-10 20:59N 43°23' E 004°54'0 0.0
2018-Apr-10 20:26N 43°23' E 004°54'0 0.0
2018-Apr-10 19:59N 43°23' E 004°54'0 0.0
2018-Apr-10 19:29N 43°23' E 004°54'0 0.0
2018-Apr-10 17:47N 43°23' E 004°54'0 0.0
2018-Apr-10 17:23N 43°23' E 004°54'0 0.0
2018-Apr-10 16:59N 43°23' E 004°54'0 0.1
2018-Apr-10 16:29N 43°23' E 004°54'0 0.0
2018-Apr-10 15:59N 43°23' E 004°54'0 0.0
2018-Apr-10 15:29N 43°23' E 004°54'0 0.0
2018-Apr-10 14:59N 43°23' E 004°54'0 0.0
2018-Apr-10 14:29N 43°23' E 004°54'0 0.0
2018-Apr-10 13:59N 43°23' E 004°54'0 0.0
2018-Apr-10 13:29N 43°23' E 004°54'0 0.0
2018-Apr-10 12:56N 43°23' E 004°54'0 0.0
2018-Apr-10 12:29N 43°23' E 004°54'0 0.0
2018-Apr-10 11:59N 43°23' E 004°54'0 0.0
2018-Apr-10 11:29N 43°23' E 004°54'0 0.0
2018-Apr-10 10:59N 43°23' E 004°54'0 0.0
2018-Apr-10 10:29N 43°23' E 004°54'0 0.0
2018-Apr-10 09:59N 43°23' E 004°54'0 0.0
2018-Apr-10 09:29N 43°23' E 004°54'0 0.0
2018-Apr-10 08:59N 43°23' E 004°54'0 0.0
2018-Apr-10 08:29N 43°23' E 004°54'0 0.0
2018-Apr-10 07:59N 43°23' E 004°54'0 0.0
2018-Apr-10 07:26N 43°23' E 004°54'0 0.0
2018-Apr-10 06:59N 43°23' E 004°54'0 0.0
2018-Apr-10 06:26N 43°23' E 004°54'0 0.0
2018-Apr-10 05:59N 43°23' E 004°54'0 0.0
2018-Apr-10 05:29N 43°23' E 004°54'0 0.0
2018-Apr-10 04:59N 43°23' E 004°54'0 0.0
2018-Apr-10 04:29N 43°23' E 004°54'0 0.0
2018-Apr-10 03:59N 43°23' E 004°54'0 0.0
2018-Apr-10 03:29N 43°23' E 004°54'0 0.0
2018-Apr-10 02:59N 43°23' E 004°54'0 0.0
2018-Apr-10 02:29N 43°23' E 004°54'0 0.1
2018-Apr-10 01:59N 43°23' E 004°54'0 0.0
2018-Apr-10 01:29N 43°23' E 004°54'0 0.0
2018-Apr-10 00:59N 43°23' E 004°54'0 0.0
2018-Apr-10 00:29N 43°23' E 004°54'  

Dump ship's entire track history